Time;durP1;ratioP1;P1;durP2;ratioP2;P2;SDS_P1;SDS_P2;PMS_P1;PMS_P2;Temp;Humidity;BMP_temperature;BMP_pressure;BME280_temperature;BME280_humidity;BME280_pressure;Samples;Min_cycle;Max_cycle;Signal;HPM_P1;HPM_P2
2021/11/04 00:02:11;;;;;;;29.30;22.98;;;5.50;99.90;;;;;;5066221;28;25073;-74
2021/11/04 00:04:38;;;;;;;32.40;23.48;;;5.50;99.90;;;;;;5044690;28;25075;-75
2021/11/04 00:07:06;;;;;;;31.70;22.10;;;5.30;99.90;;;;;;5041063;28;25103;-76
2021/11/04 00:09:33;;;;;;;34.80;23.77;;;5.30;99.90;;;;;;5076336;28;25063;-76
2021/11/04 00:11:58;;;;;;;31.45;23.05;;;5.20;99.90;;;;;;5073296;28;25086;-73
2021/11/04 00:14:24;;;;;;;31.35;23.00;;;5.20;99.90;;;;;;5067330;28;25054;-75
2021/11/04 00:16:50;;;;;;;29.65;20.67;;;5.10;99.90;;;;;;5070677;28;25067;-76
2021/11/04 00:19:16;;;;;;;29.05;21.98;;;5.20;99.90;;;;;;5067684;28;25084;-75
2021/11/04 00:21:42;;;;;;;30.70;21.30;;;5.30;99.90;;;;;;5074327;28;25058;-76
2021/11/04 00:24:08;;;;;;;24.10;19.95;;;5.30;99.90;;;;;;5046637;28;25167;-75
2021/11/04 00:26:34;;;;;;;28.88;20.25;;;5.20;99.90;;;;;;5053710;28;25083;-74
2021/11/04 00:29:00;;;;;;;30.63;20.92;;;5.30;99.90;;;;;;5083735;28;25062;-76
2021/11/04 00:31:26;;;;;;;33.22;21.58;;;5.40;99.90;;;;;;5072008;28;25096;-76
2021/11/04 00:33:52;;;;;;;27.33;20.23;;;5.50;99.90;;;;;;5072322;28;25066;-75
2021/11/04 00:36:20;;;;;;;26.88;20.45;;;5.40;99.90;;;;;;5076644;28;25096;-77
2021/11/04 00:38:46;;;;;;;31.08;21.35;;;5.40;99.90;;;;;;5052186;28;25080;-76
2021/11/04 00:41:13;;;;;;;26.63;20.92;;;5.30;99.90;;;;;;5047688;28;25140;-75
2021/11/04 00:43:40;;;;;;;31.15;21.60;;;5.30;99.90;;;;;;5053299;28;25071;-75
2021/11/04 00:46:06;;;;;;;26.45;20.92;;;5.20;99.90;;;;;;5071770;28;25100;-75
2021/11/04 00:48:31;;;;;;;32.85;21.05;;;5.20;99.90;;;;;;5069132;28;25091;-75
2021/11/04 00:50:58;;;;;;;28.90;20.42;;;5.20;99.90;;;;;;5057279;28;25105;-74
2021/11/04 00:53:24;;;;;;;29.30;21.40;;;5.20;99.90;;;;;;5067428;28;25083;-75
2021/11/04 00:55:49;;;;;;;28.45;20.27;;;5.20;99.90;;;;;;5053475;28;25136;-75
2021/11/04 00:58:16;;;;;;;30.80;21.52;;;5.20;99.90;;;;;;5052539;28;25114;-74
2021/11/04 01:00:42;;;;;;;26.95;19.63;;;5.10;99.90;;;;;;5065848;28;25078;-75
2021/11/04 01:03:08;;;;;;;30.05;21.42;;;5.10;99.90;;;;;;5067139;28;25068;-75
2021/11/04 01:05:33;;;;;;;43.17;24.35;;;5.20;99.90;;;;;;5066256;28;25051;-74
2021/11/04 01:07:59;;;;;;;40.40;25.60;;;5.20;99.90;;;;;;5066815;28;25053;-74
2021/11/04 01:10:26;;;;;;;45.85;26.00;;;5.20;99.90;;;;;;5069204;28;25066;-74
2021/11/04 01:12:52;;;;;;;43.55;24.05;;;5.30;99.90;;;;;;5074800;28;25116;-74
2021/11/04 01:15:18;;;;;;;74.05;26.23;;;5.30;99.90;;;;;;5066456;28;25113;-75
2021/11/04 01:17:48;;;;;;;224.48;34.90;;;5.30;99.90;;;;;;5075179;28;25141;-74
2021/11/04 01:20:17;;;;;;;91.65;33.13;;;5.30;99.90;;;;;;5051544;28;25060;-73
2021/11/04 01:22:42;;;;;;;156.73;32.83;;;5.30;99.90;;;;;;5059997;28;25073;-75
2021/11/04 01:25:08;;;;;;;88.22;32.70;;;5.20;99.90;;;;;;5067304;28;25164;-75
2021/11/04 01:27:34;;;;;;;67.75;29.20;;;5.10;99.90;;;;;;5070034;28;25084;-75
2021/11/04 01:30:00;;;;;;;114.80;35.85;;;5.10;99.90;;;;;;5050257;28;25078;-75
2021/11/04 01:32:26;;;;;;;64.07;30.60;;;5.00;99.90;;;;;;5039473;28;25065;-73
2021/11/04 01:34:51;;;;;;;56.75;28.17;;;4.90;99.90;;;;;;5070239;28;25109;-73
2021/11/04 01:37:17;;;;;;;49.38;28.20;;;4.80;99.90;;;;;;5063880;28;25138;-74
2021/11/04 01:39:43;;;;;;;39.67;24.95;;;4.90;99.90;;;;;;5069669;28;25111;-72
2021/11/04 01:42:09;;;;;;;43.63;26.90;;;5.00;99.90;;;;;;5062523;28;25125;-74
2021/11/04 01:44:34;;;;;;;60.00;27.80;;;5.00;99.90;;;;;;5043468;28;25085;-74
2021/11/04 01:47:00;;;;;;;41.30;26.95;;;5.00;99.90;;;;;;5066005;28;25065;-73
2021/11/04 01:49:26;;;;;;;45.80;26.48;;;4.90;99.90;;;;;;5048913;28;25055;-75
2021/11/04 01:51:53;;;;;;;38.38;25.92;;;4.90;99.90;;;;;;5079434;28;25101;-73
2021/11/04 01:54:19;;;;;;;36.60;24.90;;;4.90;99.90;;;;;;5083896;28;25085;-75
2021/11/04 01:56:44;;;;;;;70.60;29.67;;;4.80;99.90;;;;;;5084447;28;25074;-76
2021/11/04 01:59:11;;;;;;;49.50;27.95;;;4.80;99.90;;;;;;5084964;28;25094;-77
2021/11/04 02:01:37;;;;;;;79.68;28.17;;;4.80;99.90;;;;;;5084165;28;25070;-75
2021/11/04 02:04:31;;;;;;;86.43;28.05;;;4.90;99.90;;;;;;5078624;28;25077;-75
2021/11/04 02:07:06;;;;;;;65.47;27.10;;;4.90;99.90;;;;;;5036971;28;25071;-75
2021/11/04 02:09:38;;;;;;;70.65;27.30;;;4.90;99.90;;;;;;5069772;28;25100;-75
2021/11/04 02:12:14;;;;;;;113.13;28.17;;;4.90;99.90;;;;;;5059862;28;25060;-73
2021/11/04 02:14:45;;;;;;;149.02;31.73;;;5.00;99.90;;;;;;5092073;28;25056;-74
2021/11/04 02:17:12;;;;;;;88.63;28.20;;;5.00;99.90;;;;;;5083950;28;25063;-73
2021/11/04 02:19:48;;;;;;;172.65;34.97;;;5.00;99.90;;;;;;5080712;28;25055;-73
2021/11/04 02:22:27;;;;;;;94.45;27.08;;;5.00;99.90;;;;;;5055363;28;25055;-75
2021/11/04 02:25:15;;;;;;;182.70;28.67;;;5.00;99.90;;;;;;5083157;28;25113;-72
2021/11/04 02:27:44;;;;;;;108.15;23.05;;;5.00;99.90;;;;;;5077680;28;25083;-75
2021/11/04 02:30:11;;;;;;;96.15;29.73;;;5.00;99.90;;;;;;5045269;28;25087;-75
2021/11/04 02:32:39;;;;;;;108.15;24.75;;;4.80;99.90;;;;;;5082031;28;25082;-72
2021/11/04 02:35:06;;;;;;;89.97;25.60;;;4.70;99.90;;;;;;5063466;28;25049;-73
2021/11/04 02:37:32;;;;;;;50.05;21.83;;;4.70;99.90;;;;;;5080599;28;25095;-72
2021/11/04 02:39:59;;;;;;;108.97;27.83;;;4.60;99.90;;;;;;5059209;28;25094;-74
2021/11/04 02:42:26;;;;;;;56.78;23.30;;;4.60;99.90;;;;;;5056109;28;25052;-73
2021/11/04 02:44:56;;;;;;;52.65;24.38;;;4.40;99.90;;;;;;5065195;28;25080;-74
2021/11/04 02:47:23;;;;;;;48.80;23.23;;;4.40;99.90;;;;;;5084263;28;25114;-72
2021/11/04 02:49:51;;;;;;;77.80;23.27;;;4.30;99.90;;;;;;5084783;28;25060;-72
2021/11/04 02:52:16;;;;;;;63.70;23.65;;;4.30;99.90;;;;;;5080769;28;25070;-75
2021/11/04 02:55:08;;;;;;;43.22;19.25;;;4.40;99.90;;;;;;5083996;28;25091;-75
2021/11/04 02:57:42;;;;;;;95.28;27.20;;;4.50;99.90;;;;;;5048972;28;25134;-73
2021/11/04 03:00:08;;;;;;;45.33;22.38;;;4.60;99.90;;;;;;5048530;28;25073;-72
2021/11/04 03:02:34;;;;;;;35.08;20.42;;;4.50;99.90;;;;;;5068528;28;25178;-72
2021/11/04 03:04:59;;;;;;;36.58;22.48;;;4.60;99.90;;;;;;5069885;28;25119;-72
2021/11/04 03:07:25;;;;;;;34.90;22.85;;;4.50;99.90;;;;;;5072373;28;25131;-72
2021/11/04 03:09:51;;;;;;;47.78;26.85;;;4.40;99.90;;;;;;5049932;28;25158;-71
2021/11/04 03:12:16;;;;;;;42.45;25.15;;;4.30;99.90;;;;;;5058208;28;25060;-71
2021/11/04 03:14:43;;;;;;;38.55;23.80;;;4.20;99.90;;;;;;5065474;28;25137;-71
2021/11/04 03:17:09;;;;;;;26.48;16.15;;;4.10;99.90;;;;;;5062090;28;25079;-75
2021/11/04 03:19:35;;;;;;;32.20;21.85;;;4.30;99.90;;;;;;5068257;28;25061;-72
2021/11/04 03:22:02;;;;;;;43.08;24.00;;;4.50;99.90;;;;;;5039535;28;25134;-71
2021/11/04 03:24:28;;;;;;;33.80;20.27;;;4.30;99.90;;;;;;5049761;28;25067;-72
2021/11/04 03:27:05;;;;;;;28.45;22.60;;;4.30;99.90;;;;;;5031035;28;25061;-72
2021/11/04 03:29:35;;;;;;;24.73;20.23;;;4.20;99.90;;;;;;5064031;28;25068;-72
2021/11/04 03:32:03;;;;;;;29.20;20.15;;;4.20;99.90;;;;;;5067612;28;25096;-73
2021/11/04 03:34:32;;;;;;;30.17;23.33;;;4.20;99.90;;;;;;5057998;28;25076;-74
2021/11/04 03:36:59;;;;;;;32.15;22.33;;;4.20;99.90;;;;;;5037384;28;25076;-73
2021/11/04 03:39:25;;;;;;;30.50;21.95;;;4.20;99.90;;;;;;5067769;28;25133;-71
2021/11/04 03:41:56;;;;;;;28.08;21.70;;;4.10;99.90;;;;;;5058075;28;25073;-74
2021/11/04 03:44:23;;;;;;;30.73;21.55;;;4.10;99.90;;;;;;5069805;28;25083;-73
2021/11/04 03:46:52;;;;;;;31.48;20.92;;;4.10;99.90;;;;;;5064322;28;25067;-72
2021/11/04 03:49:19;;;;;;;32.90;22.25;;;4.00;99.90;;;;;;5068433;28;25050;-73
2021/11/04 03:51:49;;;;;;;42.00;23.20;;;4.10;99.90;;;;;;5068736;28;25067;-74
2021/11/04 03:54:17;;;;;;;47.88;25.55;;;4.10;99.90;;;;;;5069431;28;25132;-73
2021/11/04 03:56:44;;;;;;;58.17;24.13;;;4.10;99.90;;;;;;5069359;28;25068;-76
2021/11/04 03:59:10;;;;;;;77.80;26.63;;;4.10;99.90;;;;;;5063255;28;25075;-73
2021/11/04 04:01:36;;;;;;;50.47;24.33;;;4.20;99.90;;;;;;5071964;28;25081;-72
2021/11/04 04:04:03;;;;;;;66.90;30.15;;;4.10;99.90;;;;;;5072588;28;25067;-73
2021/11/04 04:06:31;;;;;;;60.00;25.73;;;4.10;99.90;;;;;;5063090;28;25093;-75
2021/11/04 04:08:58;;;;;;;68.13;27.65;;;4.10;99.90;;;;;;5062016;28;25086;-72
2021/11/04 04:11:25;;;;;;;59.20;26.63;;;4.00;99.90;;;;;;5050551;28;25057;-73
2021/11/04 04:13:51;;;;;;;40.35;24.30;;;3.90;99.90;;;;;;5065056;28;25060;-72
2021/11/04 04:16:18;;;;;;;40.92;25.48;;;4.00;99.90;;;;;;5066328;28;25145;-72
2021/11/04 04:18:43;;;;;;;31.73;21.70;;;4.00;99.90;;;;;;5076807;28;25105;-72
2021/11/04 04:21:09;;;;;;;50.25;27.63;;;4.10;99.90;;;;;;5056258;28;25159;-74
2021/11/04 04:23:36;;;;;;;38.85;25.67;;;4.00;99.90;;;;;;5061929;28;25080;-73
2021/11/04 04:26:02;;;;;;;34.08;23.13;;;3.90;99.90;;;;;;5036169;28;25069;-72
2021/11/04 04:28:27;;;;;;;34.53;23.63;;;3.90;99.90;;;;;;5046918;28;25060;-73
2021/11/04 04:30:53;;;;;;;31.10;21.45;;;3.80;99.90;;;;;;5067347;28;25079;-75
2021/11/04 04:33:19;;;;;;;34.40;23.02;;;3.90;99.90;;;;;;5040642;28;25132;-74
2021/11/04 04:35:46;;;;;;;31.65;21.75;;;3.90;99.90;;;;;;5071908;28;25070;-73
2021/11/04 04:38:12;;;;;;;31.88;21.90;;;3.90;99.90;;;;;;5076915;28;25097;-73
2021/11/04 04:40:38;;;;;;;33.42;22.30;;;3.80;99.90;;;;;;5057899;28;25081;-72
2021/11/04 04:43:04;;;;;;;31.05;21.02;;;3.80;99.90;;;;;;5072642;28;25081;-72
2021/11/04 04:45:30;;;;;;;27.38;19.45;;;3.80;99.90;;;;;;5079022;28;25147;-72
2021/11/04 04:47:56;;;;;;;30.75;21.65;;;3.80;99.90;;;;;;5075026;28;25065;-75
2021/11/04 04:50:22;;;;;;;25.70;19.33;;;3.90;99.90;;;;;;5054588;28;25070;-74
2021/11/04 04:52:47;;;;;;;24.42;19.08;;;3.80;99.90;;;;;;5074728;28;25106;-72
2021/11/04 04:55:13;;;;;;;19.58;14.73;;;3.90;99.90;;;;;;5076659;28;25058;-75
2021/11/04 04:57:39;;;;;;;23.45;16.73;;;3.80;99.90;;;;;;5073643;28;25063;-74
2021/11/04 05:00:12;;;;;;;23.85;17.02;;;3.80;99.90;;;;;;5072526;28;25068;-73
2021/11/04 05:02:39;;;;;;;22.23;17.05;;;3.90;99.90;;;;;;5053459;28;25164;-73
2021/11/04 05:05:07;;;;;;;24.25;16.50;;;3.90;99.90;;;;;;5070189;28;25082;-75
2021/11/04 05:07:33;;;;;;;24.02;17.65;;;3.80;99.90;;;;;;5051464;28;25055;-75
2021/11/04 05:09:59;;;;;;;20.48;16.65;;;3.70;99.90;;;;;;5068412;28;25068;-75
2021/11/04 05:12:24;;;;;;;20.05;15.82;;;3.60;99.90;;;;;;5034665;28;25074;-73
2021/11/04 05:14:50;;;;;;;22.13;17.60;;;3.60;99.90;;;;;;5053922;28;25084;-74
2021/11/04 05:17:17;;;;;;;19.85;15.30;;;3.50;99.90;;;;;;5055296;28;25147;-73
2021/11/04 05:19:42;;;;;;;19.20;15.95;;;3.60;99.90;;;;;;5075692;28;25076;-77
2021/11/04 05:22:08;;;;;;;17.38;15.30;;;3.50;99.90;;;;;;5052581;28;25055;-74
2021/11/04 05:24:35;;;;;;;17.52;14.77;;;3.50;99.90;;;;;;5068092;28;25068;-76
2021/11/04 05:27:05;;;;;;;16.95;13.32;;;3.60;99.90;;;;;;5071743;28;25134;-73
2021/11/04 05:29:33;;;;;;;17.63;14.70;;;3.70;99.90;;;;;;5072351;28;25050;-74
2021/11/04 05:32:00;;;;;;;15.15;13.55;;;3.70;99.90;;;;;;5072426;28;25156;-73
2021/11/04 05:34:25;;;;;;;16.08;12.82;;;3.60;99.90;;;;;;5072463;28;25085;-74
2021/11/04 05:36:52;;;;;;;17.45;14.40;;;3.70;99.90;;;;;;5045962;28;25130;-75
2021/11/04 05:39:18;;;;;;;17.38;15.02;;;3.70;99.90;;;;;;5055808;28;25069;-71
2021/11/04 05:41:45;;;;;;;18.33;14.85;;;3.70;99.90;;;;;;5057020;28;25132;-72
2021/11/04 05:44:10;;;;;;;16.23;12.93;;;3.60;99.90;;;;;;5056962;28;25063;-74
2021/11/04 05:46:36;;;;;;;14.85;12.82;;;3.60;99.90;;;;;;5062928;28;25093;-74
2021/11/04 05:49:02;;;;;;;18.95;13.50;;;3.60;99.90;;;;;;5071105;28;25078;-74
2021/11/04 05:51:27;;;;;;;14.32;11.98;;;3.70;99.90;;;;;;5067036;28;25060;-74
2021/11/04 05:53:53;;;;;;;13.15;11.75;;;3.80;99.90;;;;;;5055608;28;25059;-75
2021/11/04 05:56:19;;;;;;;13.85;12.23;;;3.90;99.90;;;;;;5062831;28;25054;-74
2021/11/04 05:58:44;;;;;;;16.77;12.75;;;3.90;99.90;;;;;;5037267;28;25130;-74
2021/11/04 06:01:10;;;;;;;14.40;12.60;;;3.90;99.90;;;;;;5059300;28;25070;-72
2021/11/04 06:03:35;;;;;;;14.30;12.05;;;4.10;99.90;;;;;;5046305;28;25125;-73
2021/11/04 06:06:01;;;;;;;13.80;12.25;;;4.10;99.90;;;;;;5065827;28;25072;-74
2021/11/04 06:08:27;;;;;;;13.32;11.93;;;4.10;99.90;;;;;;5049099;28;25060;-73
2021/11/04 06:10:52;;;;;;;10.02;9.02;;;4.20;99.90;;;;;;5066757;28;25065;-73
2021/11/04 06:13:18;;;;;;;12.00;10.65;;;4.20;99.90;;;;;;5066377;28;25058;-72
2021/11/04 06:15:44;;;;;;;14.35;12.07;;;4.40;99.90;;;;;;5059088;28;25089;-73
2021/11/04 06:18:10;;;;;;;14.48;12.98;;;4.40;99.90;;;;;;5030925;28;25080;-73
2021/11/04 06:20:35;;;;;;;14.10;12.57;;;4.40;99.90;;;;;;5062250;28;25061;-73
2021/11/04 06:23:01;;;;;;;12.70;11.32;;;4.30;99.90;;;;;;5040348;28;25075;-71
2021/11/04 06:25:27;;;;;;;17.20;12.57;;;4.40;99.90;;;;;;5063387;28;25068;-70
2021/11/04 06:27:53;;;;;;;13.18;11.82;;;4.50;99.90;;;;;;5067925;28;25123;-72
2021/11/04 06:30:18;;;;;;;13.88;12.45;;;4.50;99.90;;;;;;5037036;28;25107;-74
2021/11/04 06:32:44;;;;;;;14.45;12.38;;;4.50;99.90;;;;;;5068055;28;25082;-71
2021/11/04 06:35:12;;;;;;;20.88;11.50;;;4.50;99.90;;;;;;5074055;28;25052;-76
2021/11/04 06:37:38;;;;;;;14.35;11.85;;;4.50;99.90;;;;;;5059801;28;25123;-74
2021/11/04 06:40:06;;;;;;;14.75;12.02;;;4.70;99.90;;;;;;5056195;28;25055;-74
2021/11/04 06:42:33;;;;;;;13.32;11.43;;;4.80;99.90;;;;;;5043416;28;25109;-79
2021/11/04 06:44:59;;;;;;;19.40;12.15;;;5.00;99.90;;;;;;5059128;28;25096;-73
2021/11/04 06:47:36;;;;;;;16.33;12.27;;;5.20;99.90;;;;;;5058194;28;25126;-72
2021/11/04 06:50:04;;;;;;;16.88;11.90;;;5.30;99.90;;;;;;5068758;28;25065;-71
2021/11/04 06:52:37;;;;;;;18.67;14.02;;;5.40;99.90;;;;;;5049142;28;25086;-73
2021/11/04 06:55:06;;;;;;;19.02;14.30;;;5.40;99.90;;;;;;5033151;28;25102;-75
2021/11/04 06:57:36;;;;;;;19.38;12.80;;;5.40;99.90;;;;;;5047614;28;25082;-74
2021/11/04 07:00:05;;;;;;;22.90;16.35;;;5.40;99.90;;;;;;5051587;28;25162;-74
2021/11/04 07:02:41;;;;;;;22.83;16.02;;;5.50;99.90;;;;;;5049546;28;25154;-72
2021/11/04 07:05:11;;;;;;;23.05;17.10;;;5.50;99.90;;;;;;5035120;28;25127;-77
2021/11/04 07:07:48;;;;;;;22.63;15.70;;;5.60;99.90;;;;;;5050582;28;25092;-73
2021/11/04 07:10:19;;;;;;;22.05;17.05;;;5.70;99.90;;;;;;5071070;28;25067;-74
2021/11/04 07:12:47;;;;;;;21.40;15.63;;;5.80;99.90;;;;;;5070318;28;25134;-74
2021/11/04 07:15:15;;;;;;;21.13;15.43;;;6.00;99.90;;;;;;5049593;28;25104;-74
2021/11/04 07:17:43;;;;;;;25.10;15.32;;;6.10;99.90;;;;;;5048970;28;25059;-75
2021/11/04 07:20:11;;;;;;;21.73;15.05;;;6.20;99.90;;;;;;5048855;28;25114;-72
2021/11/04 07:22:54;;;;;;;17.70;14.23;;;6.30;99.90;;;;;;5067149;28;25072;-72
2021/11/04 07:25:24;;;;;;;24.90;15.77;;;6.40;99.90;;;;;;5064372;28;25085;-77
2021/11/04 07:28:12;;;;;;;19.67;14.50;;;6.50;99.90;;;;;;5068822;28;25092;-73
2021/11/04 07:30:39;;;;;;;21.55;14.90;;;6.50;99.90;;;;;;5065657;28;25162;-74
2021/11/04 07:33:05;;;;;;;26.48;14.65;;;6.50;99.90;;;;;;5066699;28;25070;-72
2021/11/04 07:35:38;;;;;;;21.77;13.90;;;6.50;99.90;;;;;;5067154;28;25068;-72
2021/11/04 07:38:09;;;;;;;20.63;13.35;;;6.60;99.90;;;;;;5048138;28;25144;-73
2021/11/04 07:40:35;;;;;;;18.95;13.07;;;6.60;99.90;;;;;;5064692;28;25053;-73
2021/11/04 07:43:01;;;;;;;13.23;11.82;;;6.70;99.90;;;;;;5070262;28;25101;-74
2021/11/04 07:45:30;;;;;;;15.75;11.75;;;6.80;99.90;;;;;;5069479;28;25076;-71
2021/11/04 07:47:57;;;;;;;14.20;10.13;;;6.90;99.90;;;;;;5068748;28;25061;-73
2021/11/04 07:50:25;;;;;;;11.38;9.05;;;7.10;99.90;;;;;;5047613;28;25061;-74
2021/11/04 07:52:51;;;;;;;11.85;8.80;;;7.20;99.90;;;;;;5042338;28;25063;-77
2021/11/04 07:55:17;;;;;;;13.35;8.23;;;7.30;99.90;;;;;;5067725;28;25167;-73
2021/11/04 07:57:45;;;;;;;15.10;7.40;;;7.50;99.90;;;;;;5065149;28;25114;-73
2021/11/04 08:00:18;;;;;;;9.30;6.97;;;7.70;99.90;;;;;;5070469;28;25073;-77
2021/11/04 08:02:46;;;;;;;11.20;6.60;;;7.90;99.90;;;;;;5090566;28;25111;-75
2021/11/04 08:05:14;;;;;;;7.82;5.05;;;7.90;99.90;;;;;;5088091;28;25105;-78
2021/11/04 08:07:41;;;;;;;8.32;6.32;;;8.00;99.90;;;;;;5083867;28;25072;-75
2021/11/04 08:10:11;;;;;;;6.78;5.22;;;7.90;99.90;;;;;;5070719;28;25070;-74
2021/11/04 08:12:39;;;;;;;13.02;6.55;;;7.90;99.90;;;;;;5050994;28;25157;-72
2021/11/04 08:15:07;;;;;;;7.55;5.97;;;8.00;99.90;;;;;;5066496;28;25083;-76
2021/11/04 08:17:35;;;;;;;10.57;5.63;;;8.10;99.90;;;;;;5052520;28;25050;-73
2021/11/04 08:20:01;;;;;;;10.07;4.53;;;8.10;99.90;;;;;;5054343;28;25157;-72
2021/11/04 08:22:27;;;;;;;8.55;5.60;;;8.10;99.90;;;;;;5073668;28;25120;-72
2021/11/04 08:24:53;;;;;;;7.55;5.47;;;8.20;99.90;;;;;;5064264;28;25093;-73
2021/11/04 08:27:19;;;;;;;9.38;6.10;;;8.30;99.90;;;;;;5061401;28;25072;-74
2021/11/04 08:29:46;;;;;;;11.55;6.97;;;8.40;99.90;;;;;;5066109;28;25495;-74
2021/11/04 08:32:12;;;;;;;11.98;6.78;;;8.40;99.90;;;;;;5067301;28;25058;-75
2021/11/04 08:34:41;;;;;;;13.38;6.95;;;8.30;99.90;;;;;;5067500;28;25125;-74
2021/11/04 08:37:08;;;;;;;11.43;7.60;;;8.30;99.90;;;;;;5063974;28;25116;-73
2021/11/04 08:39:34;;;;;;;16.08;7.55;;;8.30;99.90;;;;;;5063527;28;25147;-73
2021/11/04 08:42:03;;;;;;;12.90;7.82;;;8.30;99.90;;;;;;5057942;28;25102;-74
2021/11/04 08:44:30;;;;;;;11.77;5.95;;;8.40;99.90;;;;;;5077237;28;25066;-74
2021/11/04 08:46:57;;;;;;;10.77;6.07;;;8.40;99.90;;;;;;5050567;28;25135;-72
2021/11/04 08:49:24;;;;;;;14.98;6.70;;;8.40;99.90;;;;;;5069768;28;25079;-75
2021/11/04 08:51:53;;;;;;;11.85;5.43;;;8.40;99.90;;;;;;5054307;28;25061;-73
2021/11/04 08:54:18;;;;;;;6.47;5.20;;;8.40;99.90;;;;;;5072588;28;25117;-73
2021/11/04 08:56:45;;;;;;;9.63;5.68;;;8.40;99.90;;;;;;5078325;28;25055;-74
2021/11/04 08:59:12;;;;;;;10.20;5.43;;;8.40;99.90;;;;;;5072056;28;25058;-76
2021/11/04 09:01:38;;;;;;;7.35;4.28;;;8.50;99.90;;;;;;5088411;28;25125;-75
2021/11/04 09:04:04;;;;;;;6.50;4.10;;;8.60;99.90;;;;;;5072745;28;25062;-72
2021/11/04 09:06:29;;;;;;;8.68;4.72;;;8.70;99.90;;;;;;5077230;28;25070;-78
2021/11/04 09:08:56;;;;;;;8.38;3.88;;;8.70;99.90;;;;;;5078421;28;25071;-74
2021/11/04 09:11:21;;;;;;;7.38;3.70;;;8.80;99.90;;;;;;5047362;28;25053;-73
2021/11/04 09:13:49;;;;;;;6.82;3.47;;;8.80;99.90;;;;;;5071913;28;25098;-74
2021/11/04 09:16:14;;;;;;;6.65;3.90;;;8.90;99.90;;;;;;5068782;28;25066;-77
2021/11/04 09:18:40;;;;;;;7.57;3.20;;;8.90;99.90;;;;;;5069033;28;25071;-73
2021/11/04 09:21:05;;;;;;;6.18;3.50;;;9.00;99.90;;;;;;5066894;28;25074;-73
2021/11/04 09:23:31;;;;;;;5.30;3.35;;;9.20;99.90;;;;;;5053380;28;25078;-73
2021/11/04 09:25:56;;;;;;;5.60;2.70;;;9.20;99.90;;;;;;5045171;28;25086;-75
2021/11/04 09:28:22;;;;;;;6.80;2.90;;;9.20;99.90;;;;;;5070443;28;25052;-73
2021/11/04 09:30:48;;;;;;;6.57;2.92;;;9.30;99.90;;;;;;5047048;28;25131;-74
2021/11/04 09:33:14;;;;;;;10.32;3.30;;;9.30;99.90;;;;;;5069439;28;25091;-74
2021/11/04 09:35:41;;;;;;;5.72;2.97;;;9.40;99.90;;;;;;5050008;28;25059;-73
2021/11/04 09:38:09;;;;;;;12.70;3.55;;;9.40;99.90;;;;;;5059436;28;25087;-72
2021/11/04 09:40:35;;;;;;;7.28;3.47;;;9.40;99.90;;;;;;5063828;28;25049;-77
2021/11/04 09:43:02;;;;;;;8.02;3.25;;;9.40;99.90;;;;;;5081157;28;25108;-74
2021/11/04 09:45:28;;;;;;;9.15;3.55;;;9.40;99.90;;;;;;5043232;28;25049;-72
2021/11/04 09:47:55;;;;;;;6.07;3.83;;;9.30;99.90;;;;;;5071028;28;25146;-73
2021/11/04 09:50:21;;;;;;;10.80;3.58;;;9.30;99.90;;;;;;5069393;28;25099;-72
2021/11/04 09:52:54;;;;;;;7.57;3.15;;;9.30;99.90;;;;;;5070721;28;25052;-74
2021/11/04 09:55:23;;;;;;;7.93;2.80;;;9.30;99.90;;;;;;5068419;28;25061;-74
2021/11/04 09:57:54;;;;;;;8.57;2.70;;;9.30;99.90;;;;;;5052584;28;25078;-74
2021/11/04 10:00:21;;;;;;;9.18;2.58;;;9.40;99.90;;;;;;5069853;28;25122;-76
2021/11/04 10:03:04;;;;;;;10.00;2.90;;;9.50;99.90;;;;;;5052827;28;25050;-74
2021/11/04 10:05:37;;;;;;;9.48;3.10;;;9.60;99.90;;;;;;5069862;28;25085;-71
2021/11/04 10:08:03;;;;;;;7.00;3.47;;;9.80;99.90;;;;;;5071722;28;25060;-72
2021/11/04 10:10:28;;;;;;;8.73;2.75;;;10.10;99.90;;;;;;5066274;28;25086;-73
2021/11/04 10:12:56;;;;;;;8.43;2.85;;;10.10;99.90;;;;;;5066016;28;25078;-75
2021/11/04 10:15:22;;;;;;;9.65;2.80;;;10.30;99.90;;;;;;5060644;28;25082;-73
2021/11/04 10:17:48;;;;;;;9.68;2.78;;;10.40;99.90;;;;;;5064467;28;25091;-75
2021/11/04 10:20:18;;;;;;;9.35;2.53;;;10.40;99.90;;;;;;5065643;28;25081;-75
2021/11/04 10:22:57;;;;;;;8.07;2.03;;;10.40;99.90;;;;;;5071663;28;25102;-75
2021/11/04 10:25:24;;;;;;;10.68;2.45;;;10.50;99.90;;;;;;5066935;28;25070;-75
2021/11/04 10:27:50;;;;;;;6.43;2.72;;;10.60;99.90;;;;;;5069876;28;25069;-73
2021/11/04 10:30:43;;;;;;;4.40;2.92;;;10.50;99.90;;;;;;5068706;28;25130;-73
2021/11/04 10:33:27;;;;;;;8.13;2.10;;;10.60;99.90;;;;;;5062510;28;25078;-75
2021/11/04 10:36:07;;;;;;;9.45;3.15;;;10.40;99.90;;;;;;5066659;28;25117;-73
2021/11/04 10:38:55;;;;;;;6.22;1.95;;;10.40;99.90;;;;;;5067151;28;25183;-74
2021/11/04 10:41:27;;;;;;;6.50;2.08;;;10.30;99.90;;;;;;5036423;28;25101;-75
2021/11/04 10:44:06;;;;;;;5.57;2.13;;;10.30;99.90;;;;;;5065325;28;25061;-74
2021/11/04 10:46:48;;;;;;;5.05;2.10;;;10.60;99.90;;;;;;5069436;28;25133;-74
2021/11/04 10:49:15;;;;;;;6.37;2.20;;;10.70;99.90;;;;;;5072716;28;25095;-72
2021/11/04 10:51:41;;;;;;;8.07;2.38;;;10.80;99.90;;;;;;5078460;28;25108;-72
2021/11/04 10:54:15;;;;;;;6.45;1.92;;;11.10;99.90;;;;;;5063632;28;25060;-73
2021/11/04 10:56:42;;;;;;;6.65;1.73;;;11.20;99.90;;;;;;5075076;28;25106;-73
2021/11/04 10:59:16;;;;;;;3.15;2.08;;;11.30;99.90;;;;;;5058136;28;25076;-73
2021/11/04 11:01:46;;;;;;;5.05;1.80;;;11.40;99.90;;;;;;5072360;28;25072;-73
2021/11/04 11:04:19;;;;;;;7.78;2.15;;;11.30;99.90;;;;;;5070450;28;25074;-74
2021/11/04 11:06:51;;;;;;;3.60;1.70;;;11.20;99.90;;;;;;5073654;28;25087;-71
2021/11/04 11:09:28;;;;;;;6.80;1.90;;;11.30;99.90;;;;;;5068977;28;25145;-74
2021/11/04 11:11:58;;;;;;;4.15;1.33;;;11.20;99.90;;;;;;5032942;28;1017603;-72
2021/11/04 11:14:30;;;;;;;4.18;1.75;;;11.10;99.90;;;;;;5070923;28;25063;-73
2021/11/04 11:17:00;;;;;;;3.42;1.35;;;10.80;99.90;;;;;;5052448;28;25048;-72
2021/11/04 11:19:38;;;;;;;3.22;1.25;;;10.70;99.90;;;;;;5077156;28;25056;-74
2021/11/04 11:22:06;;;;;;;4.53;1.27;;;11.10;99.90;;;;;;5072454;28;25055;-74
2021/11/04 11:24:34;;;;;;;4.22;1.50;;;11.10;99.90;;;;;;5052249;28;25101;-73
2021/11/04 11:27:02;;;;;;;5.22;1.65;;;11.00;99.90;;;;;;5050414;28;25065;-74
2021/11/04 11:29:34;;;;;;;3.58;1.52;;;10.80;99.90;;;;;;5063102;28;25072;-73
2021/11/04 11:31:59;;;;;;;4.60;1.30;;;11.10;99.90;;;;;;5065654;28;25059;-74
2021/11/04 11:34:27;;;;;;;6.00;1.85;;;11.40;99.90;;;;;;5069968;28;25061;-74
2021/11/04 11:37:10;;;;;;;4.85;1.20;;;11.50;99.90;;;;;;5067656;28;25157;-75
2021/11/04 11:39:45;;;;;;;7.82;1.55;;;11.50;99.90;;;;;;5043275;28;25063;-75
2021/11/04 11:42:16;;;;;;;5.78;1.90;;;11.40;99.90;;;;;;5050717;28;25059;-74
2021/11/04 11:44:45;;;;;;;5.32;1.48;;;11.50;99.90;;;;;;5051560;28;25052;-74
2021/11/04 11:47:13;;;;;;;6.38;1.77;;;11.40;99.90;;;;;;5069308;28;25069;-75
2021/11/04 11:49:40;;;;;;;7.05;1.73;;;11.30;99.90;;;;;;5067940;28;25064;-72
2021/11/04 11:52:45;;;;;;;16.05;1.90;;;11.40;99.90;;;;;;5051503;28;25050;-73
2021/11/04 11:55:14;;;;;;;6.25;1.50;;;11.50;99.90;;;;;;5076148;28;25061;-76
2021/11/04 11:57:41;;;;;;;5.40;1.38;;;11.60;99.90;;;;;;5074154;28;25110;-71
2021/11/04 12:00:08;;;;;;;9.13;1.73;;;11.90;99.90;;;;;;5072161;28;25079;-74
2021/11/04 12:02:51;;;;;;;6.57;1.65;;;12.10;99.90;;;;;;5069983;28;25069;-72
2021/11/04 12:05:34;;;;;;;6.80;1.77;;;12.10;99.90;;;;;;5067311;28;25046;-73
2021/11/04 12:08:08;;;;;;;4.53;1.38;;;12.20;99.90;;;;;;5064453;28;25097;-73
2021/11/04 12:10:39;;;;;;;3.50;1.23;;;12.30;99.90;;;;;;5071515;28;25078;-74
2021/11/04 12:13:30;;;;;;;7.22;1.50;;;12.30;99.90;;;;;;5086688;28;25072;-73
2021/11/04 12:16:16;;;;;;;5.90;1.75;;;11.90;99.90;;;;;;5087573;28;25075;-72
2021/11/04 12:18:55;;;;;;;4.35;1.25;;;11.70;99.90;;;;;;5084523;28;25118;-77
2021/11/04 12:21:33;;;;;;;3.53;1.08;;;11.50;99.90;;;;;;5068498;28;25085;-78
2021/11/04 12:24:03;;;;;;;1.92;0.77;;;11.30;99.90;;;;;;5063715;28;25057;-78
2021/11/04 12:26:34;;;;;;;1.27;0.73;;;11.50;99.90;;;;;;5058647;28;25097;-77
2021/11/04 12:29:04;;;;;;;5.95;0.70;;;11.50;99.90;;;;;;5055884;28;25059;-73
2021/11/04 12:31:32;;;;;;;3.67;0.70;;;12.00;99.90;;;;;;5056127;28;25067;-74
2021/11/04 12:34:01;;;;;;;2.03;0.68;;;12.60;99.90;;;;;;5073948;28;25063;-75
2021/11/04 12:36:32;;;;;;;4.25;1.05;;;12.60;99.90;;;;;;5058728;28;25122;-75
2021/11/04 12:38:58;;;;;;;2.83;1.10;;;12.50;99.90;;;;;;5076398;28;25069;-78
2021/11/04 12:41:24;;;;;;;2.40;1.13;;;12.60;99.90;;;;;;5074094;28;25099;-76
2021/11/04 12:43:50;;;;;;;4.07;1.42;;;12.50;99.90;;;;;;5072128;28;25057;-76
2021/11/04 12:46:24;;;;;;;4.55;2.13;;;12.10;99.90;;;;;;5070146;28;25167;-76
2021/11/04 12:48:56;;;;;;;4.57;2.30;;;12.00;99.90;;;;;;5071736;28;25060;-74